createdAt,value
2022-09-11T00:01:57.464Z,20.60
2022-09-11T00:04:43.451Z,21.20
2022-09-11T00:07:28.865Z,20.90
2022-09-11T00:10:15.097Z,21.50
2022-09-11T00:13:00.464Z,21.40
2022-09-11T00:15:47.149Z,21.10
2022-09-11T00:18:35.953Z,21.20
2022-09-11T00:21:21.852Z,21.20
2022-09-11T00:24:10.965Z,21.10
2022-09-11T00:26:56.226Z,21.00
2022-09-11T00:29:42.311Z,21.00
2022-09-11T00:32:28.214Z,20.90
2022-09-11T00:35:14.093Z,20.90
2022-09-11T00:37:59.653Z,20.90
2022-09-11T00:40:48.535Z,20.80
2022-09-11T00:44:12.672Z,20.80
2022-09-11T00:47:05.842Z,20.80
2022-09-11T00:49:55.454Z,21.10
2022-09-11T00:53:12.893Z,20.80
2022-09-11T00:56:02.208Z,20.70
2022-09-11T00:58:52.452Z,20.80
2022-09-11T01:01:37.999Z,20.90
2022-09-11T01:04:24.725Z,20.60
2022-09-11T01:07:13.457Z,20.20
2022-09-11T01:09:59.950Z,20.60
2022-09-11T01:12:51.457Z,20.80
2022-09-11T01:15:47.459Z,20.40
2022-09-11T01:18:47.617Z,20.50
2022-09-11T01:21:45.787Z,20.40
2022-09-11T01:24:51.516Z,20.90
2022-09-11T01:27:55.001Z,20.70
2022-09-11T01:30:47.479Z,20.60
2022-09-11T01:33:45.997Z,20.30
2022-09-11T01:36:41.010Z,20.50
2022-09-11T01:39:33.894Z,20.30
2022-09-11T01:42:23.177Z,20.40
2022-09-11T01:45:12.724Z,20.80
2022-09-11T01:48:00.169Z,20.30
2022-09-11T01:50:49.792Z,20.80
2022-09-11T01:53:40.475Z,20.90
2022-09-11T01:56:32.101Z,20.50
2022-09-11T01:59:21.761Z,20.60
2022-09-11T02:02:13.547Z,20.60
2022-09-11T02:05:08.100Z,20.50
2022-09-11T02:08:07.424Z,20.20
2022-09-11T02:11:03.484Z,19.80
2022-09-11T02:13:53.660Z,20.10
2022-09-11T02:16:50.249Z,20.20
2022-09-11T02:19:37.403Z,20.20
2022-09-11T02:22:24.746Z,20.00
2022-09-11T02:25:11.526Z,20.90
2022-09-11T02:27:57.448Z,20.00
2022-09-11T02:30:44.427Z,20.00
2022-09-11T02:33:36.170Z,20.10
2022-09-11T02:36:54.840Z,20.10
2022-09-11T02:39:41.316Z,20.20
2022-09-11T02:42:50.811Z,20.90
2022-09-11T02:46:12.372Z,20.00
2022-09-11T02:49:19.702Z,20.10
2022-09-11T02:52:20.810Z,19.90
2022-09-11T02:55:25.694Z,19.70
2022-09-11T02:58:26.916Z,19.70
2022-09-11T03:01:14.035Z,19.20
2022-09-11T03:04:00.196Z,19.50
2022-09-11T03:06:47.469Z,19.50
2022-09-11T03:09:35.000Z,19.50
2022-09-11T03:12:27.621Z,18.90
2022-09-11T03:15:15.936Z,19.20
2022-09-11T03:18:01.568Z,19.50
2022-09-11T03:20:47.375Z,19.50
2022-09-11T03:23:33.269Z,19.50
2022-09-11T03:26:19.142Z,19.50
2022-09-11T03:29:08.537Z,19.70
2022-09-11T03:31:55.028Z,19.20
2022-09-11T03:34:40.884Z,19.50
2022-09-11T03:37:27.164Z,19.20
2022-09-11T03:40:14.799Z,19.40
2022-09-11T03:43:00.551Z,19.20
2022-09-11T03:45:51.926Z,19.10
2022-09-11T03:48:38.133Z,19.20
2022-09-11T03:51:23.778Z,19.10
2022-09-11T03:54:09.960Z,19.30
2022-09-11T03:56:55.525Z,19.00
2022-09-11T03:59:41.470Z,19.70
2022-09-11T04:02:28.073Z,19.30
2022-09-11T04:05:13.723Z,19.30
2022-09-11T04:07:59.754Z,19.30
2022-09-11T04:10:47.122Z,19.30
2022-09-11T04:13:36.138Z,19.30
2022-09-11T04:16:23.751Z,19.20
2022-09-11T04:19:13.343Z,19.10
2022-09-11T04:22:01.203Z,19.10
2022-09-11T04:24:46.996Z,19.10
2022-09-11T04:27:33.476Z,19.10
2022-09-11T04:30:19.903Z,19.10
2022-09-11T04:33:07.185Z,19.10
2022-09-11T04:35:52.753Z,19.10
2022-09-11T04:38:41.489Z,19.00
2022-09-11T04:41:30.149Z,19.00
2022-09-11T04:44:20.747Z,19.00
2022-09-11T04:47:06.736Z,18.60
2022-09-11T04:49:52.841Z,18.60
2022-09-11T04:52:39.298Z,18.50
2022-09-11T04:55:27.196Z,19.60
2022-09-11T04:58:14.023Z,18.80
2022-09-11T05:03:46.713Z,18.60
2022-09-11T05:06:32.777Z,18.50
2022-09-11T05:09:22.723Z,18.50
2022-09-11T05:14:56.860Z,18.90
2022-09-11T05:17:42.575Z,18.70
2022-09-11T05:20:31.028Z,18.80
2022-09-11T05:23:16.656Z,18.90
2022-09-11T05:26:04.112Z,18.60
2022-09-11T05:28:55.754Z,18.80
2022-09-11T05:31:42.768Z,19.60
2022-09-11T05:34:29.924Z,18.40
2022-09-11T05:37:17.181Z,19.20
2022-09-11T05:40:05.286Z,20.20
2022-09-11T05:42:52.745Z,19.30
2022-09-11T05:45:38.773Z,19.20
2022-09-11T05:48:25.558Z,19.60
2022-09-11T05:51:19.238Z,19.70
2022-09-11T05:54:05.353Z,19.80
2022-09-11T05:56:51.909Z,20.20
2022-09-11T05:59:42.478Z,20.60
2022-09-11T06:02:28.540Z,21.40
2022-09-11T06:05:15.381Z,22.80
2022-09-11T06:08:02.330Z,23.00
2022-09-11T06:10:48.029Z,23.50
2022-09-11T06:13:40.729Z,23.60
2022-09-11T06:16:27.147Z,23.70
2022-09-11T06:19:17.664Z,23.70
2022-09-11T06:22:04.742Z,23.60
2022-09-11T06:24:55.350Z,23.50
2022-09-11T06:27:41.729Z,23.60
2022-09-11T06:30:27.707Z,23.50
2022-09-11T06:33:14.665Z,23.30
2022-09-11T06:36:04.058Z,24.00
2022-09-11T06:38:57.685Z,23.50
2022-09-11T06:41:45.649Z,23.50
2022-09-11T06:47:21.087Z,23.50
2022-09-11T06:50:07.593Z,23.90
2022-09-11T06:53:02.668Z,24.00
2022-09-11T06:55:49.628Z,24.30
2022-09-11T06:58:36.789Z,24.40
2022-09-11T07:01:23.542Z,24.50
2022-09-11T07:04:14.794Z,24.40
2022-09-11T07:07:02.154Z,24.40
2022-09-11T07:09:48.499Z,24.20
2022-09-11T07:12:35.984Z,24.30
2022-09-11T07:15:22.201Z,24.60
2022-09-11T07:18:08.158Z,24.50
2022-09-11T07:20:54.212Z,24.30
2022-09-11T07:23:41.354Z,24.20
2022-09-11T07:26:29.804Z,24.20
2022-09-11T07:29:22.431Z,24.50
2022-09-11T07:32:08.960Z,24.40
2022-09-11T07:34:54.898Z,24.50
2022-09-11T07:37:41.057Z,24.80
2022-09-11T07:40:29.073Z,25.10
2022-09-11T07:43:18.354Z,25.30
2022-09-11T07:46:05.452Z,25.30
2022-09-11T07:48:54.681Z,25.50
2022-09-11T07:51:40.532Z,25.60
2022-09-11T07:54:29.372Z,25.90
2022-09-11T07:57:15.755Z,25.80
2022-09-11T08:00:01.916Z,26.00
2022-09-11T08:02:54.265Z,25.80
2022-09-11T08:05:48.612Z,26.30
2022-09-11T08:08:35.443Z,26.30
2022-09-11T08:11:22.317Z,26.10
2022-09-11T08:14:08.968Z,26.50
2022-09-11T08:16:56.932Z,26.20
2022-09-11T08:22:33.258Z,26.30
2022-09-11T08:25:20.944Z,26.30
2022-09-11T08:28:07.557Z,26.60
2022-09-11T08:30:58.957Z,26.80
2022-09-11T08:36:31.661Z,26.60
2022-09-11T08:39:18.051Z,26.30
2022-09-11T08:42:16.117Z,27.10
2022-09-11T08:45:07.518Z,27.30
2022-09-11T08:47:58.270Z,27.30
2022-09-11T08:50:44.300Z,27.20
2022-09-11T08:53:34.231Z,26.90
2022-09-11T08:56:26.166Z,27.10
2022-09-11T08:59:34.793Z,27.50
2022-09-11T09:02:35.530Z,28.00
2022-09-11T09:05:35.452Z,28.10
2022-09-11T09:08:50.226Z,28.10
2022-09-11T09:11:42.020Z,28.30
2022-09-11T09:14:37.972Z,27.90
2022-09-11T09:17:33.689Z,27.80
2022-09-11T09:20:29.285Z,27.60
2022-09-11T09:23:21.469Z,27.60
2022-09-11T09:26:17.221Z,27.70
2022-09-11T09:29:09.292Z,27.60
2022-09-11T09:32:04.418Z,27.60
2022-09-11T09:35:00.652Z,27.60
2022-09-11T09:37:52.133Z,27.30
2022-09-11T09:40:39.834Z,27.30
2022-09-11T09:43:50.537Z,27.20
2022-09-11T09:46:50.801Z,27.30
2022-09-11T09:49:37.504Z,27.30
2022-09-11T09:52:25.831Z,27.30
2022-09-11T09:55:18.545Z,27.30
2022-09-11T09:58:04.043Z,27.50
2022-09-11T10:00:50.009Z,27.20
2022-09-11T10:03:35.911Z,27.20
2022-09-11T10:06:22.098Z,27.30
2022-09-11T10:09:23.008Z,27.30
2022-09-11T10:12:25.722Z,27.50
2022-09-11T10:15:20.332Z,27.10
2022-09-11T10:18:22.392Z,27.00
2022-09-11T10:21:29.709Z,27.00
2022-09-11T10:24:18.851Z,27.20
2022-09-11T10:27:04.976Z,27.20
2022-09-11T10:29:51.185Z,27.60
2022-09-11T10:32:38.637Z,27.50
2022-09-11T10:35:29.430Z,27.40
2022-09-11T10:38:18.376Z,27.00
2022-09-11T10:41:15.423Z,27.10
2022-09-11T10:44:03.111Z,27.10
2022-09-11T10:47:06.148Z,27.10
2022-09-11T10:50:17.017Z,27.30
2022-09-11T10:53:15.369Z,27.30
2022-09-11T10:56:03.571Z,27.60
2022-09-11T10:58:55.075Z,27.30
2022-09-11T11:01:40.969Z,27.20
2022-09-11T11:04:31.823Z,27.30
2022-09-11T11:07:40.625Z,27.40
2022-09-11T11:10:27.062Z,27.40
2022-09-11T11:13:34.053Z,27.30
2022-09-11T11:16:47.059Z,27.60
2022-09-11T11:19:57.001Z,27.60
2022-09-11T11:23:20.225Z,27.60
2022-09-11T11:26:24.192Z,27.70
2022-09-11T11:32:16.654Z,27.80
2022-09-11T11:35:37.289Z,28.00
2022-09-11T11:38:34.280Z,27.00
2022-09-11T11:41:34.343Z,27.70
2022-09-11T11:44:33.905Z,27.80
2022-09-11T11:47:25.314Z,27.70
2022-09-11T11:50:18.561Z,27.70
2022-09-11T11:53:31.273Z,27.60
2022-09-11T11:56:35.222Z,27.70
2022-09-11T11:59:47.372Z,27.70
2022-09-11T12:02:56.516Z,27.60
2022-09-11T12:05:42.543Z,27.50
2022-09-11T12:08:28.725Z,27.40
2022-09-11T12:11:18.544Z,27.30
2022-09-11T12:14:07.216Z,27.40
2022-09-11T12:16:52.977Z,27.30
2022-09-11T12:19:58.797Z,27.60
2022-09-11T12:22:49.762Z,27.70
2022-09-11T12:25:35.773Z,27.80
2022-09-11T12:28:28.110Z,27.80
2022-09-11T12:31:18.234Z,28.00
2022-09-11T12:34:05.445Z,27.80
2022-09-11T12:37:01.415Z,27.70
2022-09-11T12:40:16.815Z,27.70
2022-09-11T12:43:20.541Z,27.70
2022-09-11T12:46:12.371Z,27.50
2022-09-11T12:49:20.985Z,28.00
2022-09-11T12:52:05.819Z,28.00
2022-09-11T12:54:52.753Z,28.00
2022-09-11T12:57:40.776Z,28.00
2022-09-11T13:00:40.897Z,28.40
2022-09-11T13:03:28.109Z,28.20
2022-09-11T13:06:14.366Z,27.90
2022-09-11T13:09:02.093Z,28.10
2022-09-11T13:11:56.973Z,28.10
2022-09-11T13:14:57.039Z,28.00
2022-09-11T13:17:46.838Z,28.20
2022-09-11T13:20:32.881Z,28.10
2022-09-11T13:23:18.598Z,28.20
2022-09-11T13:26:07.838Z,28.30
2022-09-11T13:28:56.416Z,28.40
2022-09-11T13:31:43.456Z,28.40
2022-09-11T13:34:30.471Z,28.40
2022-09-11T13:37:36.964Z,28.30
2022-09-11T13:40:28.946Z,28.40
2022-09-11T13:43:22.270Z,28.40
2022-09-11T13:46:17.006Z,28.50
2022-09-11T13:49:06.553Z,28.60
2022-09-11T13:51:52.450Z,28.50
2022-09-11T13:54:45.494Z,28.50
2022-09-11T13:57:32.052Z,28.50
2022-09-11T14:00:44.912Z,28.30
2022-09-11T14:03:33.230Z,28.60
2022-09-11T14:06:20.704Z,28.20
2022-09-11T14:09:06.500Z,28.10
2022-09-11T14:11:52.808Z,28.40
2022-09-11T14:14:38.902Z,28.40
2022-09-11T14:17:25.757Z,28.30
2022-09-11T14:20:20.058Z,28.30
2022-09-11T14:23:06.708Z,28.20
2022-09-11T14:26:14.675Z,28.10
2022-09-11T14:29:05.779Z,28.40
2022-09-11T14:31:52.804Z,28.30
2022-09-11T14:34:38.434Z,28.20
2022-09-11T14:37:27.628Z,28.30
2022-09-11T14:40:19.867Z,28.30
2022-09-11T14:43:05.845Z,28.30
2022-09-11T14:45:51.509Z,28.10
2022-09-11T14:48:37.131Z,28.20
2022-09-11T14:51:22.997Z,28.30
2022-09-11T14:54:15.397Z,28.30
2022-09-11T14:57:00.857Z,28.20
2022-09-11T14:59:46.697Z,28.20
2022-09-11T15:02:32.368Z,28.10
2022-09-11T15:05:21.681Z,27.90
2022-09-11T15:08:07.660Z,28.40
2022-09-11T15:13:57.883Z,27.80
2022-09-11T15:16:46.728Z,27.70
2022-09-11T15:19:35.190Z,27.80
2022-09-11T15:22:20.874Z,27.70
2022-09-11T15:25:07.842Z,27.70
2022-09-11T15:27:53.833Z,27.70
2022-09-11T15:30:39.725Z,27.70
2022-09-11T15:33:29.789Z,27.60
2022-09-11T15:36:15.925Z,27.60
2022-09-11T15:39:03.616Z,27.70
2022-09-11T15:41:49.432Z,27.60
2022-09-11T15:44:36.144Z,27.60
2022-09-11T15:47:22.473Z,27.60
2022-09-11T15:50:09.137Z,27.50
2022-09-11T15:52:54.694Z,27.50
2022-09-11T15:55:40.588Z,27.50
2022-09-11T15:58:26.920Z,27.40
2022-09-11T16:01:18.245Z,27.30
2022-09-11T16:04:09.397Z,27.20
2022-09-11T16:06:55.205Z,27.10
2022-09-11T16:09:40.944Z,27.10
2022-09-11T16:12:28.061Z,27.10
2022-09-11T16:15:13.739Z,27.10
2022-09-11T16:17:59.596Z,27.10
2022-09-11T16:20:45.141Z,27.10
2022-09-11T16:23:30.854Z,27.10
2022-09-11T16:26:20.900Z,26.30
2022-09-11T16:29:08.589Z,27.00
2022-09-11T16:31:55.452Z,27.10
2022-09-11T16:34:42.247Z,27.00
2022-09-11T16:37:28.785Z,27.00
2022-09-11T16:40:15.038Z,27.20
2022-09-11T16:43:02.169Z,26.90
2022-09-11T16:45:52.627Z,26.90
2022-09-11T16:48:39.088Z,26.90
2022-09-11T16:51:25.234Z,26.70
2022-09-11T16:54:13.187Z,26.70
2022-09-11T16:56:59.241Z,26.70
2022-09-11T16:59:45.136Z,26.60
2022-09-11T17:05:17.575Z,26.40
2022-09-11T17:08:03.765Z,26.40
2022-09-11T17:10:54.351Z,26.30
2022-09-11T17:13:44.246Z,26.50
2022-09-11T17:16:31.992Z,26.30
2022-09-11T17:19:17.896Z,26.10
2022-09-11T17:22:03.979Z,26.30
2022-09-11T17:24:49.725Z,26.00
2022-09-11T17:27:38.604Z,25.90
2022-09-11T17:30:24.385Z,26.10
2022-09-11T17:33:10.177Z,26.00
2022-09-11T17:35:57.066Z,26.10
2022-09-11T17:38:43.804Z,25.60
2022-09-11T17:41:29.764Z,26.00
2022-09-11T17:44:16.952Z,25.70
2022-09-11T17:47:02.546Z,25.80
2022-09-11T17:49:50.127Z,25.50
2022-09-11T17:52:36.819Z,24.90
2022-09-11T17:55:22.706Z,25.40
2022-09-11T17:58:08.759Z,25.50
2022-09-11T18:00:54.696Z,25.50
2022-09-11T18:03:40.584Z,24.70
2022-09-11T18:06:36.396Z,25.40
2022-09-11T18:09:22.131Z,25.40
2022-09-11T18:12:08.013Z,25.20
2022-09-11T18:14:55.973Z,25.20
2022-09-11T18:17:41.898Z,25.20
2022-09-11T18:20:27.962Z,26.00
2022-09-11T18:23:15.172Z,25.00
2022-09-11T18:26:01.066Z,25.00
2022-09-11T18:28:46.900Z,24.90
2022-09-11T18:31:39.803Z,24.80
2022-09-11T18:34:27.912Z,24.40
2022-09-11T18:37:13.504Z,24.60
2022-09-11T18:40:00.958Z,24.40
2022-09-11T18:42:46.840Z,24.60
2022-09-11T18:45:35.428Z,24.30
2022-09-11T18:48:21.854Z,24.40
2022-09-11T18:51:09.185Z,23.80
2022-09-11T18:53:55.344Z,24.00
2022-09-11T18:56:42.207Z,23.50
2022-09-11T18:59:27.953Z,23.80
2022-09-11T19:02:13.645Z,23.40
2022-09-11T19:05:00.197Z,23.60
2022-09-11T19:07:48.205Z,22.90
2022-09-11T19:10:34.125Z,23.60
2022-09-11T19:13:20.617Z,23.40
2022-09-11T19:16:06.921Z,23.10
2022-09-11T19:18:52.559Z,22.80
2022-09-11T19:21:38.859Z,23.30
2022-09-11T19:24:28.176Z,23.10
2022-09-11T19:27:16.578Z,23.00
2022-09-11T19:30:02.318Z,23.10
2022-09-11T19:32:48.637Z,23.10
2022-09-11T19:35:34.116Z,23.00
2022-09-11T19:38:20.960Z,22.90
2022-09-11T19:41:10.560Z,23.20
2022-09-11T19:44:00.279Z,22.80
2022-09-11T19:46:49.038Z,22.80
2022-09-11T19:49:34.883Z,22.60
2022-09-11T19:52:20.555Z,23.20
2022-09-11T19:55:06.624Z,23.30
2022-09-11T19:57:52.626Z,22.70
2022-09-11T20:00:38.454Z,22.70
2022-09-11T20:03:24.387Z,22.40
2022-09-11T20:06:10.885Z,22.40
2022-09-11T20:09:13.803Z,22.40
2022-09-11T20:12:04.349Z,22.60
2022-09-11T20:14:50.321Z,22.40
2022-09-11T20:17:36.141Z,22.60
2022-09-11T20:20:21.896Z,22.70
2022-09-11T20:23:07.997Z,21.80
2022-09-11T20:25:53.596Z,22.20
2022-09-11T20:28:39.957Z,22.20
2022-09-11T20:31:31.523Z,22.50
2022-09-11T20:34:18.906Z,22.30
2022-09-11T20:37:09.934Z,22.20
2022-09-11T20:39:55.709Z,22.30
2022-09-11T20:42:41.942Z,21.80
2022-09-11T20:48:13.534Z,21.80
2022-09-11T20:51:10.555Z,22.00
2022-09-11T20:53:56.311Z,22.00
2022-09-11T20:56:42.513Z,22.00
2022-09-11T20:59:27.990Z,22.00
2022-09-11T21:02:14.768Z,21.90
2022-09-11T21:05:00.767Z,21.90
2022-09-11T21:07:46.272Z,21.80
2022-09-11T21:10:35.899Z,21.80
2022-09-11T21:13:21.750Z,21.90
2022-09-11T21:16:12.912Z,21.80
2022-09-11T21:19:00.287Z,21.40
2022-09-11T21:24:31.780Z,21.50
2022-09-11T21:30:04.158Z,21.40
2022-09-11T21:32:49.925Z,21.20
2022-09-11T21:35:37.445Z,21.50
2022-09-11T21:38:25.518Z,22.20
2022-09-11T21:41:12.902Z,21.20
2022-09-11T21:46:44.516Z,21.00
2022-09-11T21:49:30.337Z,22.00
2022-09-11T21:52:16.202Z,21.40
2022-09-11T21:55:02.022Z,21.10
2022-09-11T21:57:47.818Z,21.40
2022-09-11T22:00:42.546Z,20.80
2022-09-11T22:03:29.020Z,21.30
2022-09-11T22:06:14.854Z,21.10
2022-09-11T22:11:47.579Z,20.80
2022-09-11T22:14:33.815Z,20.80
2022-09-11T22:17:19.636Z,20.80
2022-09-11T22:20:05.833Z,20.90
2022-09-11T22:22:53.496Z,21.10
2022-09-11T22:25:40.238Z,20.90
2022-09-11T22:28:26.347Z,20.90
2022-09-11T22:31:15.247Z,20.90
2022-09-11T22:34:01.108Z,20.90
2022-09-11T22:36:47.074Z,20.80
2022-09-11T22:39:32.627Z,20.80
2022-09-11T22:42:19.951Z,20.80
2022-09-11T22:45:06.381Z,20.70
2022-09-11T22:47:52.058Z,20.70
2022-09-11T22:50:37.915Z,20.70
2022-09-11T22:53:29.047Z,20.60
2022-09-11T22:56:15.316Z,20.50
2022-09-11T22:59:00.837Z,20.50
2022-09-11T23:01:46.816Z,20.50
2022-09-11T23:04:33.109Z,20.40
2022-09-11T23:07:18.785Z,20.40
2022-09-11T23:10:05.197Z,20.40
2022-09-11T23:12:51.914Z,20.40
2022-09-11T23:15:37.796Z,20.40
2022-09-11T23:18:25.274Z,20.40
2022-09-11T23:21:11.272Z,20.40
2022-09-11T23:23:58.793Z,20.40
2022-09-11T23:26:45.270Z,20.30
2022-09-11T23:29:31.007Z,20.40
2022-09-11T23:32:16.890Z,20.30
2022-09-11T23:35:02.891Z,20.20
2022-09-11T23:37:48.606Z,20.20
2022-09-11T23:40:34.886Z,20.20
2022-09-11T23:43:20.313Z,20.30
2022-09-11T23:46:07.076Z,20.30
2022-09-11T23:48:52.889Z,20.20
2022-09-11T23:51:38.891Z,20.20
2022-09-11T23:54:24.304Z,20.20
2022-09-11T23:57:09.961Z,20.10
2022-09-11T23:59:55.317Z,20.10
